Terminal Aerodrome Forecast
Issued by NWS Brownsville, TX

Home | Current Version | Previous Version | Text Only | Print | Product List | Glossary On
Versions: 1 2 3 4 5 6 7 8 9 10 11 12 13 14 15 16 17 18 19 20
445
FTUS44 KBRO 281724
TAFMFE
TAF
KMFE 281724Z 2818/2918 15014G23KT P6SM SKC
     FM290300 14017G23KT P6SM OVC250
     FM290600 15017G23KT P6SM BKN015
     FM291200 15016G22KT P6SM OVC015=

USA.gov is the U.S. government's official web portal to all federal, state and local government web resources and services.